createdAt,value
2023-02-28T00:03:42.527Z,101094.75
2023-02-28T00:08:44.402Z,101090.34
2023-02-28T00:13:48.432Z,101083.06
2023-02-28T00:18:50.678Z,101103.06
2023-02-28T00:23:52.929Z,101106.69
2023-02-28T00:28:54.603Z,101105.88
2023-02-28T00:33:57.902Z,101105.25
2023-02-28T00:38:59.494Z,101101.56
2023-02-28T00:44:03.487Z,101111.00
2023-02-28T00:49:07.418Z,101101.50
2023-02-28T00:54:10.896Z,101097.44
2023-02-28T00:59:13.753Z,101089.41
2023-02-28T01:04:15.502Z,101100.63
2023-02-28T01:09:17.080Z,101099.88
2023-02-28T01:14:19.198Z,101109.03
2023-02-28T01:19:21.411Z,101114.78
2023-02-28T01:24:22.995Z,101117.81
2023-02-28T01:29:24.605Z,101092.34
2023-02-28T01:34:28.064Z,101109.66
2023-02-28T01:39:29.913Z,101117.81
2023-02-28T01:45:02.003Z,101119.63
2023-02-28T01:50:09.548Z,101109.16
2023-02-28T01:55:13.299Z,101089.81
2023-02-28T02:00:17.544Z,101075.06
2023-02-28T02:05:27.508Z,101059.31
2023-02-28T02:10:36.330Z,101066.78
2023-02-28T02:16:15.689Z,101059.97
2023-02-28T02:21:36.871Z,101068.22
2023-02-28T02:26:57.322Z,101083.47
2023-02-28T02:32:04.922Z,101073.25
2023-02-28T02:37:30.121Z,101082.47
2023-02-28T02:42:49.569Z,101083.56
2023-02-28T02:47:52.456Z,101103.31
2023-02-28T02:52:58.551Z,101085.75
2023-02-28T02:58:05.073Z,101107.19
2023-02-28T03:03:09.632Z,101098.16
2023-02-28T03:08:12.334Z,101089.91
2023-02-28T03:13:39.016Z,101084.69
2023-02-28T03:18:56.001Z,101086.00
2023-02-28T03:24:09.456Z,101099.16
2023-02-28T03:29:25.868Z,101132.63
2023-02-28T03:34:34.050Z,101131.06
2023-02-28T03:39:54.953Z,101122.84
2023-02-28T03:45:03.668Z,101124.50
2023-02-28T03:50:10.202Z,101110.56
2023-02-28T03:55:14.285Z,101118.84
2023-02-28T04:00:21.362Z,101101.94
2023-02-28T04:05:24.013Z,101096.06
2023-02-28T04:10:25.586Z,101088.59
2023-02-28T04:15:28.355Z,101086.75
2023-02-28T04:20:32.312Z,101099.81
2023-02-28T04:25:33.824Z,101090.03
2023-02-28T04:30:35.434Z,101086.38
2023-02-28T04:35:37.026Z,101089.78
2023-02-28T04:40:38.679Z,101069.09
2023-02-28T04:45:40.277Z,101085.13
2023-02-28T04:50:42.005Z,101088.00
2023-02-28T04:55:43.990Z,101095.97
2023-02-28T05:00:45.537Z,101103.63
2023-02-28T05:05:47.469Z,101103.63
2023-02-28T05:10:49.131Z,101114.63
2023-02-28T05:15:50.716Z,101116.72
2023-02-28T05:20:52.609Z,101113.81
2023-02-28T05:25:55.054Z,101116.75
2023-02-28T05:30:56.625Z,101128.94
2023-02-28T05:35:58.250Z,101127.63
2023-02-28T05:41:00.002Z,101131.63
2023-02-28T05:46:07.502Z,101134.19
2023-02-28T05:51:09.911Z,101135.19
2023-02-28T05:56:11.454Z,101144.69
2023-02-28T06:01:24.128Z,101141.38
2023-02-28T06:06:25.730Z,101129.28
2023-02-28T06:11:29.267Z,101147.56
2023-02-28T06:16:33.482Z,101135.00
2023-02-28T06:21:35.071Z,101141.81
2023-02-28T06:26:36.998Z,101142.28
2023-02-28T06:31:39.648Z,101145.91
2023-02-28T06:36:42.867Z,101144.41
2023-02-28T06:41:54.786Z,101127.91
2023-02-28T06:46:57.165Z,101136.06
2023-02-28T06:51:58.758Z,101144.31
2023-02-28T06:57:00.311Z,101142.41
2023-02-28T07:02:03.257Z,101142.34
2023-02-28T07:07:04.832Z,101135.19
2023-02-28T07:12:06.594Z,101121.81
2023-02-28T07:17:09.971Z,101107.44
2023-02-28T07:22:11.538Z,101113.97
2023-02-28T07:27:13.078Z,101099.88
2023-02-28T07:32:20.542Z,101097.06
2023-02-28T07:37:23.281Z,101103.91
2023-02-28T07:42:24.849Z,101101.78
2023-02-28T07:47:26.704Z,101077.56
2023-02-28T07:52:28.248Z,101086.09
2023-02-28T07:57:29.795Z,101081.59
2023-02-28T08:02:31.384Z,101084.16
2023-02-28T08:07:34.416Z,101071.09
2023-02-28T08:12:36.007Z,101069.44
2023-02-28T08:17:37.690Z,101069.13
2023-02-28T08:22:39.295Z,101083.47
2023-02-28T08:27:41.087Z,101076.81
2023-02-28T08:32:42.843Z,101080.91
2023-02-28T08:37:44.726Z,101080.91
2023-02-28T08:42:46.787Z,101082.03
2023-02-28T08:47:48.334Z,101082.75
2023-02-28T08:52:49.962Z,101097.63
2023-02-28T08:57:51.936Z,101061.19
2023-02-28T09:02:53.707Z,101068.88
2023-02-28T09:07:55.287Z,101064.88
2023-02-28T09:12:56.870Z,101066.56
2023-02-28T09:17:58.385Z,101067.13
2023-02-28T09:23:00.218Z,101050.94
2023-02-28T09:28:01.879Z,101058.41
2023-02-28T09:33:04.161Z,101052.53
2023-02-28T09:38:06.160Z,101036.16
2023-02-28T09:43:14.745Z,101007.78
2023-02-28T09:48:22.448Z,101018.88
2023-02-28T09:53:36.352Z,101018.28
2023-02-28T09:58:48.840Z,101015.25
2023-02-28T10:04:01.291Z,101027.22
2023-02-28T10:09:10.301Z,100990.19
2023-02-28T10:14:16.825Z,100999.59
2023-02-28T10:19:33.562Z,100989.78
2023-02-28T10:24:53.059Z,100993.03
2023-02-28T10:30:01.404Z,100991.72
2023-02-28T10:35:17.121Z,100999.22
2023-02-28T10:40:18.843Z,100996.28
2023-02-28T10:45:20.483Z,101015.25
2023-02-28T10:50:33.972Z,100996.31
2023-02-28T10:55:35.984Z,100986.81
2023-02-28T11:00:37.536Z,100972.59
2023-02-28T11:05:39.154Z,100946.25
2023-02-28T11:10:45.214Z,100959.81
2023-02-28T11:15:56.539Z,100954.91
2023-02-28T11:21:02.049Z,100954.66
2023-02-28T11:26:11.909Z,100956.44
2023-02-28T11:31:14.781Z,100945.06
2023-02-28T11:36:27.117Z,100940.59
2023-02-28T11:42:06.506Z,100940.31
2023-02-28T11:47:18.522Z,100929.16
2023-02-28T11:52:34.617Z,100890.59
2023-02-28T11:58:00.810Z,100894.97
2023-02-28T12:03:24.314Z,100931.72
2023-02-28T12:08:41.893Z,100893.94
2023-02-28T12:13:57.430Z,100889.50
2023-02-28T12:19:03.230Z,100875.31
2023-02-28T12:24:31.447Z,100896.31
2023-02-28T12:30:01.938Z,100923.09
2023-02-28T12:35:14.026Z,100905.13
2023-02-28T12:40:22.498Z,100877.53
2023-02-28T12:45:35.394Z,100876.34
2023-02-28T12:50:38.637Z,100895.31
2023-02-28T12:55:51.393Z,100869.75
2023-02-28T13:01:35.052Z,100894.09
2023-02-28T13:07:14.035Z,100890.59
2023-02-28T13:12:17.674Z,100864.84
2023-02-28T13:17:27.035Z,100848.22
2023-02-28T13:22:50.270Z,100846.22
2023-02-28T13:27:57.662Z,100888.38
2023-02-28T13:33:39.957Z,100877.28
2023-02-28T13:38:54.341Z,100844.75
2023-02-28T13:44:14.195Z,100864.75
2023-02-28T13:49:25.993Z,100862.81
2023-02-28T13:55:01.955Z,100844.34
2023-02-28T14:00:28.867Z,100838.22
2023-02-28T14:05:33.485Z,100835.66
2023-02-28T14:10:44.926Z,100860.56
2023-02-28T14:16:04.540Z,100831.91
2023-02-28T14:21:21.636Z,100850.28
2023-02-28T14:26:54.096Z,100845.22
2023-02-28T14:32:33.408Z,100863.66
2023-02-28T14:37:40.244Z,100845.91
2023-02-28T14:42:48.652Z,100885.75
2023-02-28T14:47:52.232Z,100887.97
2023-02-28T14:52:56.534Z,100887.97
2023-02-28T14:58:07.666Z,100871.00
2023-02-28T15:03:21.965Z,100860.47
2023-02-28T15:08:25.140Z,100878.47
2023-02-28T15:13:37.080Z,100880.66
2023-02-28T15:18:45.720Z,100886.44
2023-02-28T15:23:57.280Z,100879.72
2023-02-28T15:29:09.433Z,100884.78
2023-02-28T15:34:36.948Z,100870.94
2023-02-28T15:39:45.346Z,100883.94
2023-02-28T15:44:47.090Z,100863.09
2023-02-28T15:50:02.314Z,100871.22
2023-02-28T15:55:23.580Z,100873.28
2023-02-28T16:00:27.602Z,100876.34
2023-02-28T16:05:32.703Z,100882.09
2023-02-28T16:10:34.577Z,100879.72
2023-02-28T16:15:43.331Z,100886.19
2023-02-28T16:20:45.681Z,100902.59
2023-02-28T16:25:47.584Z,100911.56
2023-02-28T16:30:49.419Z,100930.19
2023-02-28T16:35:51.312Z,100924.06
2023-02-28T16:40:56.256Z,100941.66
2023-02-28T16:46:01.254Z,100953.63
2023-02-28T16:51:05.444Z,100953.94
2023-02-28T16:56:07.918Z,100962.66
2023-02-28T17:01:09.620Z,100974.66
2023-02-28T17:06:23.134Z,100988.44
2023-02-28T17:11:25.779Z,101004.78
2023-02-28T17:16:31.438Z,100996.31
2023-02-28T17:21:34.100Z,101011.25
2023-02-28T17:26:36.090Z,101023.16
2023-02-28T17:31:40.374Z,101021.66
2023-02-28T17:36:43.032Z,101036.03
2023-02-28T17:41:44.817Z,101056.69
2023-02-28T17:46:47.226Z,101063.31
2023-02-28T17:51:49.625Z,101075.44
2023-02-28T17:56:51.363Z,101087.47
2023-02-28T18:01:52.919Z,101079.13
2023-02-28T18:06:54.928Z,101082.47
2023-02-28T18:11:57.870Z,101086.75
2023-02-28T18:16:59.560Z,101098.44
2023-02-28T18:22:01.233Z,101093.06
2023-02-28T18:27:03.003Z,101092.38
2023-02-28T18:32:06.202Z,101101.06
2023-02-28T18:37:07.871Z,101106.47
2023-02-28T18:42:09.467Z,101111.75
2023-02-28T18:47:11.055Z,101121.00
2023-02-28T18:52:12.694Z,101114.34
2023-02-28T18:57:14.493Z,101119.59
2023-02-28T19:02:16.217Z,101110.25
2023-02-28T19:07:18.248Z,101122.72
2023-02-28T19:12:20.835Z,101121.03
2023-02-28T19:17:22.580Z,101116.22
2023-02-28T19:22:24.617Z,101130.13
2023-02-28T19:27:26.203Z,101131.69
2023-02-28T19:32:27.964Z,101114.66
2023-02-28T19:37:29.958Z,101122.75
2023-02-28T19:42:33.288Z,101127.81
2023-02-28T19:47:34.855Z,101128.38
2023-02-28T19:52:36.434Z,101132.78
2023-02-28T19:57:38.040Z,101137.31
2023-02-28T20:02:40.018Z,101137.28
2023-02-28T20:07:41.600Z,101138.22
2023-02-28T20:12:43.145Z,101131.97
2023-02-28T20:17:46.627Z,101138.63
2023-02-28T20:22:50.690Z,101150.91
2023-02-28T20:27:52.417Z,101140.50
2023-02-28T20:32:54.021Z,101152.22
2023-02-28T20:37:55.620Z,101165.44
2023-02-28T20:42:57.275Z,101148.16
2023-02-28T20:47:58.880Z,101160.91
2023-02-28T20:53:00.417Z,101167.25
2023-02-28T20:58:02.378Z,101166.66
2023-02-28T21:03:04.042Z,101170.78
2023-02-28T21:08:05.642Z,101178.72
2023-02-28T21:13:07.854Z,101169.75
2023-02-28T21:18:09.440Z,101163.47
2023-02-28T21:23:11.295Z,101149.16
2023-02-28T21:28:12.892Z,101150.84
2023-02-28T21:33:14.419Z,101153.34
2023-02-28T21:38:15.946Z,101157.50
2023-02-28T21:43:17.546Z,101153.75
2023-02-28T21:48:19.266Z,101161.72
2023-02-28T21:53:20.812Z,101162.56
2023-02-28T21:58:22.549Z,101170.75
2023-02-28T22:03:24.143Z,101191.47
2023-02-28T22:08:25.953Z,101179.63
2023-02-28T22:13:27.534Z,101168.56
2023-02-28T22:18:29.114Z,101195.16
2023-02-28T22:23:31.683Z,101212.81
2023-02-28T22:28:33.763Z,101194.59
2023-02-28T22:33:35.350Z,101195.72
2023-02-28T22:38:37.188Z,101198.28
2023-02-28T22:43:40.020Z,101196.31
2023-02-28T22:48:41.675Z,101179.69
2023-02-28T22:53:45.449Z,101182.50
2023-02-28T22:58:52.481Z,101178.38
2023-02-28T23:03:54.480Z,101173.13
2023-02-28T23:09:00.177Z,101181.16
2023-02-28T23:14:02.091Z,101181.31
2023-02-28T23:19:07.197Z,101175.47
2023-02-28T23:24:10.775Z,101178.75
2023-02-28T23:29:13.955Z,101200.97
2023-02-28T23:34:17.282Z,101186.31
2023-02-28T23:39:19.942Z,101195.63
2023-02-28T23:44:21.511Z,101193.91
2023-02-28T23:49:23.450Z,101187.56
2023-02-28T23:54:25.172Z,101172.56
2023-02-28T23:59:26.857Z,101181.97
